sensor_id;sensor_type;location;lat;lon;timestamp;P1;durP1;ratioP1;P2;durP2;ratioP2
39554;SDS011;25231;48.746;9.234;2022-08-21T12:35:15;117.32;;;111.22;;
39554;SDS011;25231;48.746;9.234;2022-08-21T12:37:43;72.93;;;68.80;;
39554;SDS011;25231;48.746;9.234;2022-08-21T12:42:38;29.73;;;27.77;;
39554;SDS011;25231;48.746;9.234;2022-08-21T12:51:17;88.63;;;83.88;;
39554;SDS011;25231;48.746;9.234;2022-08-21T12:56:18;32.58;;;30.65;;
39554;SDS011;25231;48.746;9.234;2022-08-21T12:58:50;59.58;;;56.28;;
39554;SDS011;25231;48.746;9.234;2022-08-21T13:01:22;146.23;;;138.57;;
39554;SDS011;25231;48.746;9.234;2022-08-21T13:03:52;122.38;;;116.25;;
39554;SDS011;25231;48.746;9.234;2022-08-21T13:06:20;125.88;;;119.38;;
39554;SDS011;25231;48.746;9.234;2022-08-21T13:08:49;105.68;;;100.30;;
39554;SDS011;25231;48.746;9.234;2022-08-21T13:11:20;58.75;;;55.53;;
39554;SDS011;25231;48.746;9.234;2022-08-21T13:13:51;56.67;;;53.58;;
39554;SDS011;25231;48.746;9.234;2022-08-21T13:16:25;94.10;;;88.88;;
39554;SDS011;25231;48.746;9.234;2022-08-21T13:19:16;72.18;;;68.32;;
39554;SDS011;25231;48.746;9.234;2022-08-21T13:21:42;90.32;;;85.72;;
39554;SDS011;25231;48.746;9.234;2022-08-21T13:24:10;95.90;;;90.55;;
39554;SDS011;25231;48.746;9.234;2022-08-21T13:26:39;68.82;;;65.07;;
39554;SDS011;25231;48.746;9.234;2022-08-21T13:29:06;94.47;;;89.50;;
39554;SDS011;25231;48.746;9.234;2022-08-21T13:31:36;172.20;;;163.05;;
39554;SDS011;25231;48.746;9.234;2022-08-21T13:34:04;248.65;;;235.23;;
39554;SDS011;25231;48.746;9.234;2022-08-21T13:36:32;257.42;;;243.32;;
39554;SDS011;25231;48.746;9.234;2022-08-21T13:39:02;320.48;;;303.33;;
39554;SDS011;25231;48.746;9.234;2022-08-21T13:41:31;331.27;;;313.60;;
39554;SDS011;25231;48.746;9.234;2022-08-21T13:44:01;201.18;;;190.35;;
39554;SDS011;25231;48.746;9.234;2022-08-21T13:46:31;112.72;;;106.53;;
39554;SDS011;25231;48.746;9.234;2022-08-21T13:48:59;106.88;;;101.18;;
39554;SDS011;25231;48.746;9.234;2022-08-21T13:51:26;196.05;;;186.10;;
39554;SDS011;25231;48.746;9.234;2022-08-21T13:53:52;183.13;;;173.30;;
39554;SDS011;25231;48.746;9.234;2022-08-21T13:56:22;211.15;;;200.63;;
39554;SDS011;25231;48.746;9.234;2022-08-21T13:58:52;211.25;;;200.63;;
39554;SDS011;25231;48.746;9.234;2022-08-21T14:01:22;195.77;;;185.18;;
39554;SDS011;25231;48.746;9.234;2022-08-21T14:03:52;245.68;;;233.35;;
39554;SDS011;25231;48.746;9.234;2022-08-21T14:06:23;192.23;;;182.32;;
39554;SDS011;25231;48.746;9.234;2022-08-21T14:08:52;200.43;;;190.20;;
39554;SDS011;25231;48.746;9.234;2022-08-21T14:11:21;160.38;;;151.93;;
39554;SDS011;25231;48.746;9.234;2022-08-21T14:14:06;227.90;;;216.35;;
39554;SDS011;25231;48.746;9.234;2022-08-21T14:16:55;217.35;;;206.48;;
39554;SDS011;25231;48.746;9.234;2022-08-21T14:19:27;197.93;;;188.02;;
39554;SDS011;25231;48.746;9.234;2022-08-21T14:22:12;153.32;;;145.48;;
39554;SDS011;25231;48.746;9.234;2022-08-21T14:25:05;147.93;;;140.52;;
39554;SDS011;25231;48.746;9.234;2022-08-21T14:27:34;148.48;;;140.63;;
39554;SDS011;25231;48.746;9.234;2022-08-21T14:30:04;132.32;;;125.47;;
39554;SDS011;25231;48.746;9.234;2022-08-21T14:32:38;143.65;;;136.52;;
39554;SDS011;25231;48.746;9.234;2022-08-21T14:35:07;157.32;;;149.60;;
39554;SDS011;25231;48.746;9.234;2022-08-21T14:37:33;183.35;;;174.07;;
39554;SDS011;25231;48.746;9.234;2022-08-21T14:39:59;148.82;;;141.35;;
39554;SDS011;25231;48.746;9.234;2022-08-21T14:42:26;148.57;;;140.98;;
39554;SDS011;25231;48.746;9.234;2022-08-21T14:44:51;173.77;;;164.60;;
39554;SDS011;25231;48.746;9.234;2022-08-21T14:47:20;134.45;;;127.45;;
39554;SDS011;25231;48.746;9.234;2022-08-21T14:49:46;137.95;;;130.90;;
39554;SDS011;25231;48.746;9.234;2022-08-21T14:52:12;189.13;;;179.35;;
39554;SDS011;25231;48.746;9.234;2022-08-21T14:54:38;226.32;;;214.55;;
39554;SDS011;25231;48.746;9.234;2022-08-21T14:57:05;153.38;;;145.40;;
39554;SDS011;25231;48.746;9.234;2022-08-21T14:59:34;189.63;;;179.77;;
39554;SDS011;25231;48.746;9.234;2022-08-21T15:02:01;181.70;;;172.35;;
39554;SDS011;25231;48.746;9.234;2022-08-21T15:04:29;150.68;;;142.80;;
39554;SDS011;25231;48.746;9.234;2022-08-21T15:06:55;117.20;;;110.97;;
39554;SDS011;25231;48.746;9.234;2022-08-21T15:09:20;120.35;;;113.85;;
39554;SDS011;25231;48.746;9.234;2022-08-21T15:11:46;148.63;;;140.63;;
39554;SDS011;25231;48.746;9.234;2022-08-21T15:14:14;117.05;;;110.63;;
39554;SDS011;25231;48.746;9.234;2022-08-21T15:16:45;127.10;;;119.95;;
39554;SDS011;25231;48.746;9.234;2022-08-21T15:19:11;121.60;;;114.75;;
39554;SDS011;25231;48.746;9.234;2022-08-21T15:21:36;117.40;;;111.00;;
39554;SDS011;25231;48.746;9.234;2022-08-21T15:24:02;114.35;;;108.07;;
39554;SDS011;25231;48.746;9.234;2022-08-21T15:26:27;79.38;;;74.72;;
39554;SDS011;25231;48.746;9.234;2022-08-21T15:28:53;119.88;;;113.13;;
39554;SDS011;25231;48.746;9.234;2022-08-21T15:31:18;92.72;;;87.65;;
39554;SDS011;25231;48.746;9.234;2022-08-21T15:33:44;115.32;;;108.88;;
39554;SDS011;25231;48.746;9.234;2022-08-21T15:36:09;107.55;;;101.85;;
39554;SDS011;25231;48.746;9.234;2022-08-21T15:38:35;75.13;;;70.90;;
39554;SDS011;25231;48.746;9.234;2022-08-21T15:41:02;77.63;;;73.43;;
39554;SDS011;25231;48.746;9.234;2022-08-21T15:43:29;110.15;;;104.22;;
39554;SDS011;25231;48.746;9.234;2022-08-21T15:45:59;85.93;;;81.30;;
39554;SDS011;25231;48.746;9.234;2022-08-21T15:48:26;107.05;;;101.28;;
39554;SDS011;25231;48.746;9.234;2022-08-21T15:50:51;79.32;;;74.95;;
39554;SDS011;25231;48.746;9.234;2022-08-21T15:53:17;87.57;;;82.80;;
39554;SDS011;25231;48.746;9.234;2022-08-21T15:55:42;78.43;;;74.15;;
39554;SDS011;25231;48.746;9.234;2022-08-21T15:58:11;138.23;;;130.70;;
39554;SDS011;25231;48.746;9.234;2022-08-21T16:00:38;78.72;;;74.32;;
39554;SDS011;25231;48.746;9.234;2022-08-21T16:03:05;86.85;;;82.03;;
39554;SDS011;25231;48.746;9.234;2022-08-21T16:05:32;82.35;;;77.60;;
39554;SDS011;25231;48.746;9.234;2022-08-21T16:07:58;94.68;;;89.28;;
39554;SDS011;25231;48.746;9.234;2022-08-21T16:10:24;100.80;;;95.05;;
39554;SDS011;25231;48.746;9.234;2022-08-21T16:12:51;95.90;;;90.18;;
39554;SDS011;25231;48.746;9.234;2022-08-21T16:15:21;103.05;;;97.18;;
39554;SDS011;25231;48.746;9.234;2022-08-21T16:17:47;263.38;;;249.52;;
39554;SDS011;25231;48.746;9.234;2022-08-21T16:20:16;137.38;;;130.02;;
39554;SDS011;25231;48.746;9.234;2022-08-21T16:22:47;257.45;;;243.80;;
39554;SDS011;25231;48.746;9.234;2022-08-21T16:25:13;846.70;;;788.17;;
39554;SDS011;25231;48.746;9.234;2022-08-21T16:27:40;364.92;;;345.20;;
39554;SDS011;25231;48.746;9.234;2022-08-21T16:30:08;320.65;;;303.40;;
39554;SDS011;25231;48.746;9.234;2022-08-21T16:32:35;165.98;;;157.18;;
39554;SDS011;25231;48.746;9.234;2022-08-21T16:35:00;247.63;;;234.93;;
39554;SDS011;25231;48.746;9.234;2022-08-21T16:37:28;278.70;;;263.70;;
39554;SDS011;25231;48.746;9.234;2022-08-21T16:39:53;128.57;;;121.43;;
39554;SDS011;25231;48.746;9.234;2022-08-21T16:42:20;311.27;;;294.38;;
39554;SDS011;25231;48.746;9.234;2022-08-21T16:44:47;238.77;;;225.70;;
39554;SDS011;25231;48.746;9.234;2022-08-21T16:47:13;340.63;;;322.75;;
39554;SDS011;25231;48.746;9.234;2022-08-21T16:49:38;298.77;;;283.30;;
39554;SDS011;25231;48.746;9.234;2022-08-21T16:52:04;259.77;;;246.27;;
39554;SDS011;25231;48.746;9.234;2022-08-21T16:54:30;334.05;;;316.25;;
39554;SDS011;25231;48.746;9.234;2022-08-21T16:56:56;331.33;;;313.27;;
39554;SDS011;25231;48.746;9.234;2022-08-21T16:59:22;293.73;;;277.50;;
39554;SDS011;25231;48.746;9.234;2022-08-21T17:01:48;336.10;;;317.40;;
39554;SDS011;25231;48.746;9.234;2022-08-21T17:04:14;299.45;;;283.02;;
39554;SDS011;25231;48.746;9.234;2022-08-21T17:06:40;395.45;;;373.67;;
39554;SDS011;25231;48.746;9.234;2022-08-21T17:09:06;251.75;;;238.38;;
39554;SDS011;25231;48.746;9.234;2022-08-21T17:11:34;310.95;;;294.23;;
39554;SDS011;25231;48.746;9.234;2022-08-21T17:14:11;362.13;;;342.80;;
39554;SDS011;25231;48.746;9.234;2022-08-21T17:16:43;339.40;;;321.55;;
39554;SDS011;25231;48.746;9.234;2022-08-21T17:19:11;378.92;;;358.75;;
39554;SDS011;25231;48.746;9.234;2022-08-21T17:21:37;318.92;;;301.90;;
39554;SDS011;25231;48.746;9.234;2022-08-21T17:24:03;370.42;;;350.80;;
39554;SDS011;25231;48.746;9.234;2022-08-21T17:26:29;357.35;;;338.40;;
39554;SDS011;25231;48.746;9.234;2022-08-21T17:28:54;334.63;;;316.92;;
39554;SDS011;25231;48.746;9.234;2022-08-21T17:31:20;382.70;;;362.23;;
39554;SDS011;25231;48.746;9.234;2022-08-21T17:33:47;485.63;;;458.52;;
39554;SDS011;25231;48.746;9.234;2022-08-21T17:36:17;530.20;;;500.10;;
39554;SDS011;25231;48.746;9.234;2022-08-21T17:38:47;416.00;;;393.58;;
39554;SDS011;25231;48.746;9.234;2022-08-21T17:41:13;479.48;;;452.02;;
39554;SDS011;25231;48.746;9.234;2022-08-21T17:43:40;526.65;;;496.55;;
39554;SDS011;25231;48.746;9.234;2022-08-21T17:46:06;481.88;;;454.67;;
39554;SDS011;25231;48.746;9.234;2022-08-21T17:48:32;442.48;;;417.23;;
39554;SDS011;25231;48.746;9.234;2022-08-21T17:50:58;372.35;;;351.45;;
39554;SDS011;25231;48.746;9.234;2022-08-21T17:53:23;364.33;;;343.95;;
39554;SDS011;25231;48.746;9.234;2022-08-21T17:55:49;346.92;;;327.70;;
39554;SDS011;25231;48.746;9.234;2022-08-21T17:58:15;311.50;;;294.33;;
39554;SDS011;25231;48.746;9.234;2022-08-21T18:00:42;260.77;;;246.60;;
39554;SDS011;25231;48.746;9.234;2022-08-21T18:03:09;144.30;;;136.75;;
39554;SDS011;25231;48.746;9.234;2022-08-21T18:05:42;112.88;;;106.80;;
39554;SDS011;25231;48.746;9.234;2022-08-21T18:08:12;73.63;;;69.60;;
39554;SDS011;25231;48.746;9.234;2022-08-21T18:10:39;75.68;;;71.68;;
39554;SDS011;25231;48.746;9.234;2022-08-21T18:13:07;103.13;;;97.32;;
39554;SDS011;25231;48.746;9.234;2022-08-21T18:15:36;107.13;;;101.50;;
39554;SDS011;25231;48.746;9.234;2022-08-21T18:18:02;90.38;;;85.50;;
39554;SDS011;25231;48.746;9.234;2022-08-21T18:20:29;90.32;;;85.40;;
39554;SDS011;25231;48.746;9.234;2022-08-21T18:22:55;91.72;;;86.75;;
39554;SDS011;25231;48.746;9.234;2022-08-21T18:25:20;92.90;;;87.82;;
39554;SDS011;25231;48.746;9.234;2022-08-21T18:27:46;77.75;;;73.45;;
39554;SDS011;25231;48.746;9.234;2022-08-21T18:30:14;104.85;;;99.25;;
39554;SDS011;25231;48.746;9.234;2022-08-21T18:32:44;97.55;;;92.32;;
39554;SDS011;25231;48.746;9.234;2022-08-21T18:35:11;119.05;;;112.75;;
39554;SDS011;25231;48.746;9.234;2022-08-21T18:37:38;110.55;;;104.72;;
39554;SDS011;25231;48.746;9.234;2022-08-21T18:40:05;118.68;;;112.45;;
39554;SDS011;25231;48.746;9.234;2022-08-21T18:42:35;96.13;;;90.90;;
39554;SDS011;25231;48.746;9.234;2022-08-21T18:45:03;89.45;;;84.63;;
39554;SDS011;25231;48.746;9.234;2022-08-21T18:47:35;54.33;;;51.45;;
39554;SDS011;25231;48.746;9.234;2022-08-21T18:50:07;104.50;;;99.38;;
39554;SDS011;25231;48.746;9.234;2022-08-21T18:52:34;140.60;;;133.60;;
39554;SDS011;25231;48.746;9.234;2022-08-21T18:54:59;218.48;;;207.93;;
39554;SDS011;25231;48.746;9.234;2022-08-21T18:57:27;307.00;;;291.85;;
39554;SDS011;25231;48.746;9.234;2022-08-21T18:59:54;330.75;;;314.10;;
39554;SDS011;25231;48.746;9.234;2022-08-21T19:02:21;311.35;;;295.73;;
39554;SDS011;25231;48.746;9.234;2022-08-21T19:04:47;291.65;;;277.35;;
39554;SDS011;25231;48.746;9.234;2022-08-21T19:07:13;200.20;;;190.48;;
39554;SDS011;25231;48.746;9.234;2022-08-21T19:09:40;217.02;;;206.60;;
39554;SDS011;25231;48.746;9.234;2022-08-21T19:12:06;220.07;;;209.50;;
39554;SDS011;25231;48.746;9.234;2022-08-21T19:14:31;247.55;;;235.30;;
39554;SDS011;25231;48.746;9.234;2022-08-21T19:16:58;248.07;;;235.75;;
39554;SDS011;25231;48.746;9.234;2022-08-21T19:19:24;203.85;;;194.02;;
39554;SDS011;25231;48.746;9.234;2022-08-21T19:21:50;180.43;;;171.60;;
39554;SDS011;25231;48.746;9.234;2022-08-21T19:24:15;118.00;;;112.10;;
39554;SDS011;25231;48.746;9.234;2022-08-21T19:26:41;77.13;;;73.03;;
39554;SDS011;25231;48.746;9.234;2022-08-21T19:29:07;77.35;;;72.93;;
39554;SDS011;25231;48.746;9.234;2022-08-21T19:31:38;70.55;;;66.80;;
39554;SDS011;25231;48.746;9.234;2022-08-21T19:34:15;82.18;;;77.68;;
39554;SDS011;25231;48.746;9.234;2022-08-21T19:36:43;73.35;;;69.28;;
39554;SDS011;25231;48.746;9.234;2022-08-21T19:39:10;84.97;;;80.47;;
39554;SDS011;25231;48.746;9.234;2022-08-21T19:41:37;85.75;;;81.07;;
39554;SDS011;25231;48.746;9.234;2022-08-21T19:44:07;84.57;;;80.05;;
39554;SDS011;25231;48.746;9.234;2022-08-21T19:46:35;94.75;;;89.70;;
39554;SDS011;25231;48.746;9.234;2022-08-21T19:49:03;116.32;;;110.25;;
39554;SDS011;25231;48.746;9.234;2022-08-21T19:51:32;102.30;;;96.93;;
39554;SDS011;25231;48.746;9.234;2022-08-21T19:53:59;113.00;;;107.03;;
39554;SDS011;25231;48.746;9.234;2022-08-21T19:56:26;113.95;;;107.78;;
39554;SDS011;25231;48.746;9.234;2022-08-21T19:58:55;130.35;;;123.38;;
39554;SDS011;25231;48.746;9.234;2022-08-21T20:01:21;129.93;;;122.90;;
39554;SDS011;25231;48.746;9.234;2022-08-21T20:03:49;118.53;;;111.93;;
39554;SDS011;25231;48.746;9.234;2022-08-21T20:06:16;107.03;;;101.03;;
39554;SDS011;25231;48.746;9.234;2022-08-21T20:08:42;55.45;;;52.47;;
39554;SDS011;25231;48.746;9.234;2022-08-21T20:11:09;28.77;;;27.00;;
39554;SDS011;25231;48.746;9.234;2022-08-21T20:13:35;13.05;;;12.02;;
39554;SDS011;25231;48.746;9.234;2022-08-21T20:16:04;9.07;;;8.38;;
39554;SDS011;25231;48.746;9.234;2022-08-21T20:18:32;11.32;;;10.40;;
39554;SDS011;25231;48.746;9.234;2022-08-21T20:21:00;11.23;;;10.40;;
39554;SDS011;25231;48.746;9.234;2022-08-21T20:23:26;12.75;;;11.95;;
39554;SDS011;25231;48.746;9.234;2022-08-21T20:25:51;27.13;;;25.42;;
39554;SDS011;25231;48.746;9.234;2022-08-21T20:28:17;14.45;;;13.32;;
39554;SDS011;25231;48.746;9.234;2022-08-21T20:30:43;30.05;;;28.25;;
39554;SDS011;25231;48.746;9.234;2022-08-21T20:33:09;14.93;;;13.82;;
39554;SDS011;25231;48.746;9.234;2022-08-21T20:35:35;26.83;;;25.25;;
39554;SDS011;25231;48.746;9.234;2022-08-21T20:38:00;22.83;;;21.33;;
39554;SDS011;25231;48.746;9.234;2022-08-21T20:40:26;27.70;;;25.95;;
39554;SDS011;25231;48.746;9.234;2022-08-21T20:42:52;24.85;;;23.35;;
39554;SDS011;25231;48.746;9.234;2022-08-21T20:45:23;24.17;;;22.70;;
39554;SDS011;25231;48.746;9.234;2022-08-21T20:48:01;22.17;;;20.88;;
39554;SDS011;25231;48.746;9.234;2022-08-21T20:50:27;23.30;;;21.73;;
39554;SDS011;25231;48.746;9.234;2022-08-21T20:53:05;26.70;;;25.00;;
39554;SDS011;25231;48.746;9.234;2022-08-21T20:55:43;24.80;;;22.95;;
39554;SDS011;25231;48.746;9.234;2022-08-21T20:58:16;27.08;;;25.33;;
39554;SDS011;25231;48.746;9.234;2022-08-21T21:00:57;25.95;;;24.35;;
39554;SDS011;25231;48.746;9.234;2022-08-21T21:03:34;25.30;;;23.77;;
39554;SDS011;25231;48.746;9.234;2022-08-21T21:06:15;24.48;;;23.00;;
39554;SDS011;25231;48.746;9.234;2022-08-21T21:08:58;26.98;;;25.23;;
39554;SDS011;25231;48.746;9.234;2022-08-21T21:11:34;25.58;;;23.88;;
39554;SDS011;25231;48.746;9.234;2022-08-21T21:14:10;25.30;;;23.90;;
39554;SDS011;25231;48.746;9.234;2022-08-21T21:16:43;24.95;;;23.35;;
39554;SDS011;25231;48.746;9.234;2022-08-21T21:21:46;17.70;;;16.58;;
39554;SDS011;25231;48.746;9.234;2022-08-21T21:31:58;28.25;;;26.63;;
39554;SDS011;25231;48.746;9.234;2022-08-21T21:34:24;32.17;;;30.30;;
39554;SDS011;25231;48.746;9.234;2022-08-21T21:36:56;34.25;;;32.15;;
39554;SDS011;25231;48.746;9.234;2022-08-21T21:42:27;47.15;;;44.58;;
39554;SDS011;25231;48.746;9.234;2022-08-21T21:47:54;57.72;;;54.22;;
39554;SDS011;25231;48.746;9.234;2022-08-21T22:02:19;197.02;;;186.35;;
39554;SDS011;25231;48.746;9.234;2022-08-21T22:05:17;98.05;;;92.65;;
39554;SDS011;25231;48.746;9.234;2022-08-21T22:10:48;34.17;;;32.20;;
39554;SDS011;25231;48.746;9.234;2022-08-21T22:13:25;51.67;;;48.85;;
39554;SDS011;25231;48.746;9.234;2022-08-21T22:15:56;45.45;;;42.83;;
39554;SDS011;25231;48.746;9.234;2022-08-21T22:18:23;32.92;;;31.02;;
39554;SDS011;25231;48.746;9.234;2022-08-21T22:20:58;26.35;;;24.85;;
39554;SDS011;25231;48.746;9.234;2022-08-21T22:23:29;23.58;;;22.17;;
39554;SDS011;25231;48.746;9.234;2022-08-21T22:26:01;31.58;;;29.45;;
39554;SDS011;25231;48.746;9.234;2022-08-21T22:28:29;67.65;;;63.60;;
39554;SDS011;25231;48.746;9.234;2022-08-21T22:33:41;153.88;;;145.45;;
39554;SDS011;25231;48.746;9.234;2022-08-21T22:36:37;52.65;;;49.67;;
39554;SDS011;25231;48.746;9.234;2022-08-21T22:39:05;23.20;;;21.40;;
39554;SDS011;25231;48.746;9.234;2022-08-21T22:41:37;30.83;;;29.08;;
39554;SDS011;25231;48.746;9.234;2022-08-21T22:44:05;35.30;;;33.15;;
39554;SDS011;25231;48.746;9.234;2022-08-21T22:54:05;62.67;;;58.67;;
39554;SDS011;25231;48.746;9.234;2022-08-21T22:56:39;54.78;;;51.50;;
39554;SDS011;25231;48.746;9.234;2022-08-21T22:59:20;49.72;;;46.67;;
39554;SDS011;25231;48.746;9.234;2022-08-21T23:01:52;140.15;;;132.45;;
39554;SDS011;25231;48.746;9.234;2022-08-21T23:04:22;173.55;;;164.00;;
39554;SDS011;25231;48.746;9.234;2022-08-21T23:06:50;113.22;;;106.95;;
39554;SDS011;25231;48.746;9.234;2022-08-21T23:09:40;117.93;;;111.38;;
39554;SDS011;25231;48.746;9.234;2022-08-21T23:12:28;131.73;;;124.50;;
39554;SDS011;25231;48.746;9.234;2022-08-21T23:14:58;58.85;;;55.58;;
39554;SDS011;25231;48.746;9.234;2022-08-21T23:20:22;123.68;;;116.80;;
39554;SDS011;25231;48.746;9.234;2022-08-21T23:25:35;74.22;;;70.13;;
39554;SDS011;25231;48.746;9.234;2022-08-21T23:30:50;89.35;;;83.97;;
39554;SDS011;25231;48.746;9.234;2022-08-21T23:33:33;104.85;;;98.13;;
39554;SDS011;25231;48.746;9.234;2022-08-21T23:44:20;117.70;;;111.03;;
39554;SDS011;25231;48.746;9.234;2022-08-21T23:47:42;122.97;;;116.18;;
39554;SDS011;25231;48.746;9.234;2022-08-21T23:52:29;124.90;;;117.88;;
